createdAt,value
2022-11-13T00:04:43.242Z,102770.53
2022-11-13T00:10:25.286Z,102758.53
2022-11-13T00:16:12.950Z,102743.03
2022-11-13T00:21:54.850Z,102738.94
2022-11-13T00:27:36.692Z,102737.19
2022-11-13T00:33:37.929Z,102751.03
2022-11-13T00:39:21.453Z,102750.16
2022-11-13T00:45:03.174Z,102742.28
2022-11-13T00:50:47.054Z,102729.22
2022-11-13T00:56:28.879Z,102718.69
2022-11-13T01:02:12.893Z,102710.06
2022-11-13T01:07:55.991Z,102702.25
2022-11-13T01:13:37.950Z,102694.44
2022-11-13T01:19:19.927Z,102700.50
2022-11-13T01:25:03.470Z,102707.44
2022-11-13T01:30:45.166Z,102713.41
2022-11-13T01:36:28.178Z,102709.91
2022-11-13T01:42:11.368Z,102701.22
2022-11-13T01:47:52.978Z,102700.38
2022-11-13T01:53:35.071Z,102685.63
2022-11-13T01:59:20.968Z,102671.72
2022-11-13T02:05:02.633Z,102657.00
2022-11-13T02:10:44.685Z,102663.16
2022-11-13T02:16:28.480Z,102655.34
2022-11-13T02:22:14.319Z,102656.22
2022-11-13T02:27:57.526Z,102659.75
2022-11-13T02:33:39.153Z,102670.19
2022-11-13T02:39:20.797Z,102663.22
2022-11-13T02:45:04.144Z,102652.75
2022-11-13T02:50:46.337Z,102651.88
2022-11-13T02:56:28.306Z,102637.88
2022-11-13T03:02:11.497Z,102636.16
2022-11-13T03:07:53.531Z,102629.28
2022-11-13T03:13:35.371Z,102616.34
2022-11-13T03:19:18.502Z,102589.34
2022-11-13T03:25:00.413Z,102606.63
2022-11-13T03:30:42.003Z,102601.50
2022-11-13T03:36:24.929Z,102614.50
2022-11-13T03:42:06.562Z,102605.94
2022-11-13T03:47:49.812Z,102604.34
2022-11-13T03:53:32.883Z,102594.88
2022-11-13T03:59:14.632Z,102596.56
2022-11-13T04:04:56.477Z,102592.13
2022-11-13T04:10:39.793Z,102592.97
2022-11-13T04:16:21.366Z,102585.13
2022-11-13T04:22:02.882Z,102579.13
2022-11-13T04:27:45.994Z,102573.03
2022-11-13T04:33:27.592Z,102577.34
2022-11-13T04:39:09.379Z,102581.56
2022-11-13T04:44:52.374Z,102571.88
2022-11-13T04:50:34.250Z,102573.53
2022-11-13T04:56:16.083Z,102572.63
2022-11-13T05:01:59.403Z,102559.47
2022-11-13T05:07:42.687Z,102563.72
2022-11-13T05:13:24.799Z,102554.91
2022-11-13T05:19:08.054Z,102560.13
2022-11-13T05:24:49.764Z,102557.53
2022-11-13T05:30:31.565Z,102549.69
2022-11-13T05:36:16.035Z,102550.56
2022-11-13T05:41:57.421Z,102548.75
2022-11-13T05:47:39.284Z,102539.19
2022-11-13T05:53:22.394Z,102540.94
2022-11-13T05:59:04.975Z,102539.16
2022-11-13T06:04:46.437Z,102533.84
2022-11-13T06:10:29.564Z,102531.16
2022-11-13T06:16:12.178Z,102530.25
2022-11-13T06:21:53.706Z,102518.13
2022-11-13T06:27:36.800Z,102519.97
2022-11-13T06:33:18.585Z,102514.75
2022-11-13T06:39:00.775Z,102515.63
2022-11-13T06:44:43.934Z,102513.91
2022-11-13T06:50:25.441Z,102504.28
2022-11-13T06:56:07.713Z,102491.34
2022-11-13T07:01:52.787Z,102493.97
2022-11-13T07:07:34.439Z,102483.59
2022-11-13T07:13:16.233Z,102487.91
2022-11-13T07:18:59.396Z,102496.41
2022-11-13T07:24:42.676Z,102498.25
2022-11-13T07:30:24.298Z,102499.22
2022-11-13T07:36:09.097Z,102491.53
2022-11-13T07:41:50.981Z,102495.09
2022-11-13T07:47:32.762Z,102495.28
2022-11-13T07:53:16.025Z,102492.81
2022-11-13T07:58:57.528Z,102492.03
2022-11-13T08:04:39.266Z,102482.53
2022-11-13T08:10:22.875Z,102479.16
2022-11-13T08:16:05.288Z,102474.09
2022-11-13T08:21:46.937Z,102475.06
2022-11-13T08:27:30.125Z,102482.03
2022-11-13T08:33:11.914Z,102472.59
2022-11-13T08:38:53.871Z,102472.75
2022-11-13T08:44:37.151Z,102465.88
2022-11-13T08:50:19.452Z,102454.66
2022-11-13T08:56:01.897Z,102447.75
2022-11-13T09:01:45.244Z,102428.59
2022-11-13T09:07:27.711Z,102402.50
2022-11-13T09:13:11.810Z,102424.28
2022-11-13T09:18:55.047Z,102425.16
2022-11-13T09:24:36.883Z,102414.69
2022-11-13T09:30:18.904Z,102405.09
2022-11-13T09:36:02.029Z,102405.94
2022-11-13T09:41:50.532Z,102406.84
2022-11-13T09:47:34.927Z,102401.56
2022-11-13T09:53:18.212Z,102406.81
2022-11-13T09:59:07.455Z,102398.94
2022-11-13T10:04:57.811Z,102404.19
2022-11-13T10:10:55.190Z,102400.66
2022-11-13T10:16:40.610Z,102390.16
2022-11-13T10:22:33.230Z,102389.25
2022-11-13T10:28:49.010Z,102379.63
2022-11-13T10:34:20.987Z,102369.16
2022-11-13T10:40:02.544Z,102353.34
2022-11-13T10:45:56.229Z,102348.91
2022-11-13T10:51:39.704Z,102351.53
2022-11-13T10:57:30.937Z,102342.72
2022-11-13T11:03:19.002Z,102343.56
2022-11-13T11:09:08.440Z,102334.94
2022-11-13T11:15:11.481Z,102334.03
2022-11-13T11:20:56.594Z,102324.41
2022-11-13T11:26:40.892Z,102307.88
2022-11-13T11:32:28.279Z,102303.47
2022-11-13T11:38:16.577Z,102275.31
2022-11-13T11:44:02.975Z,102270.81
2022-11-13T11:49:45.471Z,102257.78
2022-11-13T11:55:38.645Z,102256.78
2022-11-13T12:01:27.833Z,102254.22
2022-11-13T12:07:19.987Z,102257.78
2022-11-13T12:13:13.479Z,102246.31
2022-11-13T12:19:00.392Z,102229.59
2022-11-13T12:24:59.556Z,102224.34
2022-11-13T12:30:49.297Z,102220.84
2022-11-13T12:36:31.015Z,102210.38
2022-11-13T12:42:19.021Z,102199.06
2022-11-13T12:48:10.438Z,102193.59
2022-11-13T12:53:54.047Z,102171.44
2022-11-13T12:59:38.302Z,102157.91
2022-11-13T13:05:31.906Z,102161.56
2022-11-13T13:11:18.387Z,102152.63
2022-11-13T13:17:07.859Z,102154.91
2022-11-13T13:22:58.302Z,102152.53
2022-11-13T13:28:41.958Z,102138.19
2022-11-13T13:34:35.906Z,102138.47
2022-11-13T13:40:30.274Z,102141.31
2022-11-13T13:46:15.637Z,102138.56
2022-11-13T13:51:58.688Z,102143.38
2022-11-13T13:57:43.136Z,102140.81
2022-11-13T14:03:26.156Z,102133.16
2022-11-13T14:09:09.500Z,102133.03
2022-11-13T14:14:52.818Z,102127.25
2022-11-13T14:20:42.747Z,102111.56
2022-11-13T14:26:24.583Z,102109.72
2022-11-13T14:32:18.744Z,102099.34
2022-11-13T14:38:00.338Z,102103.81
2022-11-13T14:43:50.119Z,102092.56
2022-11-13T14:49:35.770Z,102098.84
2022-11-13T14:55:25.586Z,102085.09
2022-11-13T15:01:16.105Z,102088.88
2022-11-13T15:07:00.673Z,102083.84
2022-11-13T15:12:42.814Z,102075.38
2022-11-13T15:18:24.635Z,102073.72
2022-11-13T15:24:08.405Z,102060.06
2022-11-13T15:29:50.279Z,102059.44
2022-11-13T15:35:32.040Z,102063.13
2022-11-13T15:41:16.171Z,102058.88
2022-11-13T15:46:57.635Z,102061.56
2022-11-13T15:52:40.916Z,102051.16
2022-11-13T15:58:24.107Z,102036.31
2022-11-13T16:04:06.274Z,102032.00
2022-11-13T16:09:48.354Z,102025.13
2022-11-13T16:15:31.342Z,102016.44
2022-11-13T16:21:14.062Z,102007.75
2022-11-13T16:26:57.460Z,102015.66
2022-11-13T16:32:40.483Z,102007.88
2022-11-13T16:38:22.302Z,102005.34
2022-11-13T16:44:04.078Z,102010.56
2022-11-13T16:49:47.500Z,102001.81
2022-11-13T16:55:29.490Z,102002.69
2022-11-13T17:01:16.606Z,102000.09
2022-11-13T17:07:00.246Z,101998.31
2022-11-13T17:12:42.285Z,101979.19
2022-11-13T17:18:24.254Z,101969.50
2022-11-13T17:24:07.861Z,101972.09
2022-11-13T17:29:49.677Z,101962.56
2022-11-13T17:35:31.516Z,101954.75
2022-11-13T17:41:15.758Z,101949.63
2022-11-13T17:46:57.561Z,101956.63
2022-11-13T17:52:39.228Z,101950.63
2022-11-13T17:58:22.309Z,101935.91
2022-11-13T18:04:04.325Z,101929.88
2022-11-13T18:09:46.193Z,101929.00
2022-11-13T18:15:29.529Z,101928.16
2022-11-13T18:21:22.503Z,101919.41
2022-11-13T18:27:06.093Z,101916.72
2022-11-13T18:32:50.287Z,101919.31
2022-11-13T18:38:32.211Z,101920.25
2022-11-13T18:44:14.121Z,101920.34
2022-11-13T18:49:58.280Z,101936.97
2022-11-13T18:55:40.096Z,101931.75
2022-11-13T19:01:24.894Z,101929.16
2022-11-13T19:07:08.883Z,101923.03
2022-11-13T19:12:50.682Z,101921.28
2022-11-13T19:18:32.926Z,101911.75
2022-11-13T19:24:16.154Z,101919.56
2022-11-13T19:29:57.689Z,101907.41
2022-11-13T19:35:39.761Z,101897.81
2022-11-13T19:41:23.461Z,101890.03
2022-11-13T19:47:05.004Z,101891.78
2022-11-13T19:52:46.790Z,101879.63
2022-11-13T19:58:30.397Z,101872.72
2022-11-13T20:04:13.877Z,101874.47
2022-11-13T20:09:55.799Z,101869.25
2022-11-13T20:15:39.020Z,101857.06
2022-11-13T20:21:24.540Z,101855.38
2022-11-13T20:27:06.271Z,101850.19
2022-11-13T20:32:49.630Z,101823.28
2022-11-13T20:38:33.192Z,101836.28
2022-11-13T20:44:15.821Z,101840.66
2022-11-13T20:49:58.901Z,101829.38
2022-11-13T20:55:40.423Z,101837.19
2022-11-13T21:01:24.572Z,101827.59
2022-11-13T21:07:08.083Z,101824.16
2022-11-13T21:12:49.765Z,101823.28
2022-11-13T21:18:31.936Z,101813.75
2022-11-13T21:24:15.568Z,101806.81
2022-11-13T21:29:58.204Z,101797.25
2022-11-13T21:35:40.154Z,101785.09
2022-11-13T21:41:25.650Z,101781.63
2022-11-13T21:47:07.459Z,101776.44
2022-11-13T21:52:49.285Z,101765.13
2022-11-13T21:58:33.181Z,101760.78
2022-11-13T22:04:14.796Z,101749.53
2022-11-13T22:09:56.554Z,101749.53
2022-11-13T22:15:39.784Z,101763.41
2022-11-13T22:21:21.788Z,101757.34
2022-11-13T22:27:03.795Z,101733.03
2022-11-13T22:32:46.915Z,101737.34
2022-11-13T22:38:29.256Z,101741.69
2022-11-13T22:44:14.057Z,101733.91
2022-11-13T22:49:58.297Z,101738.25
2022-11-13T22:55:39.907Z,101734.78
2022-11-13T23:01:23.205Z,101730.41
2022-11-13T23:07:06.287Z,101729.50
2022-11-13T23:12:48.110Z,101731.25
2022-11-13T23:18:31.579Z,101732.06
2022-11-13T23:24:15.273Z,101726.81
2022-11-13T23:29:57.166Z,101724.16
2022-11-13T23:35:38.893Z,101715.50
2022-11-13T23:41:22.017Z,101707.63
2022-11-13T23:47:03.786Z,101702.44
2022-11-13T23:52:45.662Z,101689.44
2022-11-13T23:58:29.317Z,101692.03
